sensor_id;sensor_type;location;lat;lon;timestamp;temperature;humidity
34815;DHT22;21030;53.912;15.214;2023-05-02T00:01:21;33.00;21.00
34815;DHT22;21030;53.912;15.214;2023-05-02T00:03:48;33.00;21.20
34815;DHT22;21030;53.912;15.214;2023-05-02T00:06:16;33.10;21.10
34815;DHT22;21030;53.912;15.214;2023-05-02T00:08:43;32.90;21.20
34815;DHT22;21030;53.912;15.214;2023-05-02T00:11:10;32.90;20.90
34815;DHT22;21030;53.912;15.214;2023-05-02T00:13:37;32.80;21.10
34815;DHT22;21030;53.912;15.214;2023-05-02T00:16:05;31.80;21.50
34815;DHT22;21030;53.912;15.214;2023-05-02T00:18:32;31.60;21.70
34815;DHT22;21030;53.912;15.214;2023-05-02T00:20:59;31.30;22.00
34815;DHT22;21030;53.912;15.214;2023-05-02T00:23:26;31.40;22.10
34815;DHT22;21030;53.912;15.214;2023-05-02T00:25:53;30.50;22.40
34815;DHT22;21030;53.912;15.214;2023-05-02T00:28:20;30.70;22.60
34815;DHT22;21030;53.912;15.214;2023-05-02T00:30:48;31.10;22.90
34815;DHT22;21030;53.912;15.214;2023-05-02T00:33:16;32.10;21.90
34815;DHT22;21030;53.912;15.214;2023-05-02T00:35:43;31.70;21.50
34815;DHT22;21030;53.912;15.214;2023-05-02T00:38:11;31.40;21.80
34815;DHT22;21030;53.912;15.214;2023-05-02T00:40:50;31.10;22.00
34815;DHT22;21030;53.912;15.214;2023-05-02T00:43:19;31.20;21.80
34815;DHT22;21030;53.912;15.214;2023-05-02T00:45:47;31.20;21.90
34815;DHT22;21030;53.912;15.214;2023-05-02T00:48:14;30.80;22.10
34815;DHT22;21030;53.912;15.214;2023-05-02T00:50:43;31.40;22.30
34815;DHT22;21030;53.912;15.214;2023-05-02T00:53:10;32.30;21.90
34815;DHT22;21030;53.912;15.214;2023-05-02T00:55:39;32.40;21.70
34815;DHT22;21030;53.912;15.214;2023-05-02T00:58:12;32.60;21.50
34815;DHT22;21030;53.912;15.214;2023-05-02T01:06:43;32.30;21.70
34815;DHT22;21030;53.912;15.214;2023-05-02T01:12:16;32.50;21.10
34815;DHT22;21030;53.912;15.214;2023-05-02T01:14:47;32.50;21.10
34815;DHT22;21030;53.912;15.214;2023-05-02T01:17:18;32.50;21.30
34815;DHT22;21030;53.912;15.214;2023-05-02T01:19:54;32.50;21.20
34815;DHT22;21030;53.912;15.214;2023-05-02T01:22:25;32.80;21.10
34815;DHT22;21030;53.912;15.214;2023-05-02T01:30:16;33.10;21.00
34815;DHT22;21030;53.912;15.214;2023-05-02T01:32:46;33.80;20.60
34815;DHT22;21030;53.912;15.214;2023-05-02T01:35:15;34.00;20.30
34815;DHT22;21030;53.912;15.214;2023-05-02T01:37:44;33.90;20.70
34815;DHT22;21030;53.912;15.214;2023-05-02T01:40:16;33.60;20.70
34815;DHT22;21030;53.912;15.214;2023-05-02T01:42:44;33.00;20.90
34815;DHT22;21030;53.912;15.214;2023-05-02T01:45:13;32.80;20.90
34815;DHT22;21030;53.912;15.214;2023-05-02T01:47:43;33.00;20.90
34815;DHT22;21030;53.912;15.214;2023-05-02T01:50:16;32.90;20.90
34815;DHT22;21030;53.912;15.214;2023-05-02T01:52:46;32.80;20.90
34815;DHT22;21030;53.912;15.214;2023-05-02T01:55:16;32.60;21.40
34815;DHT22;21030;53.912;15.214;2023-05-02T01:57:45;32.60;21.20
34815;DHT22;21030;53.912;15.214;2023-05-02T02:00:15;33.10;21.10
34815;DHT22;21030;53.912;15.214;2023-05-02T02:02:44;33.30;21.00
34815;DHT22;21030;53.912;15.214;2023-05-02T02:05:13;33.00;21.00
34815;DHT22;21030;53.912;15.214;2023-05-02T02:07:42;33.00;21.00
34815;DHT22;21030;53.912;15.214;2023-05-02T02:10:09;33.30;21.10
34815;DHT22;21030;53.912;15.214;2023-05-02T02:12:55;33.30;20.90
34815;DHT22;21030;53.912;15.214;2023-05-02T02:15:27;33.30;20.80
34815;DHT22;21030;53.912;15.214;2023-05-02T02:20:21;32.60;21.10
34815;DHT22;21030;53.912;15.214;2023-05-02T02:22:49;32.30;21.20
34815;DHT22;21030;53.912;15.214;2023-05-02T02:25:19;32.10;21.70
34815;DHT22;21030;53.912;15.214;2023-05-02T02:27:46;32.10;21.60
34815;DHT22;21030;53.912;15.214;2023-05-02T02:30:14;32.60;21.50
34815;DHT22;21030;53.912;15.214;2023-05-02T02:32:42;32.80;21.10
34815;DHT22;21030;53.912;15.214;2023-05-02T02:35:09;33.30;21.10
34815;DHT22;21030;53.912;15.214;2023-05-02T02:37:40;33.70;20.70
34815;DHT22;21030;53.912;15.214;2023-05-02T02:42:51;33.70;20.90
34815;DHT22;21030;53.912;15.214;2023-05-02T02:51:10;34.20;20.50
34815;DHT22;21030;53.912;15.214;2023-05-02T02:54:01;34.80;20.10
34815;DHT22;21030;53.912;15.214;2023-05-02T02:56:46;35.10;19.80
34815;DHT22;21030;53.912;15.214;2023-05-02T02:59:18;35.40;19.70
34815;DHT22;21030;53.912;15.214;2023-05-02T03:02:11;35.60;19.50
34815;DHT22;21030;53.912;15.214;2023-05-02T03:04:42;35.70;19.50
34815;DHT22;21030;53.912;15.214;2023-05-02T03:07:10;35.50;19.60
34815;DHT22;21030;53.912;15.214;2023-05-02T03:09:45;35.30;19.70
34815;DHT22;21030;53.912;15.214;2023-05-02T03:12:12;35.40;19.80
34815;DHT22;21030;53.912;15.214;2023-05-02T03:14:40;34.80;19.90
34815;DHT22;21030;53.912;15.214;2023-05-02T03:17:07;34.20;20.10
34815;DHT22;21030;53.912;15.214;2023-05-02T03:19:34;34.50;20.40
34815;DHT22;21030;53.912;15.214;2023-05-02T03:22:02;34.80;20.20
34815;DHT22;21030;53.912;15.214;2023-05-02T03:24:29;34.80;20.10
34815;DHT22;21030;53.912;15.214;2023-05-02T03:26:57;34.80;20.10
34815;DHT22;21030;53.912;15.214;2023-05-02T03:29:25;35.00;20.10
34815;DHT22;21030;53.912;15.214;2023-05-02T03:31:52;35.20;20.00
34815;DHT22;21030;53.912;15.214;2023-05-02T03:34:19;35.10;20.50
34815;DHT22;21030;53.912;15.214;2023-05-02T03:36:48;34.90;20.10
34815;DHT22;21030;53.912;15.214;2023-05-02T03:39:15;35.40;20.10
34815;DHT22;21030;53.912;15.214;2023-05-02T03:41:42;35.50;20.00
34815;DHT22;21030;53.912;15.214;2023-05-02T03:44:09;35.70;20.00
34815;DHT22;21030;53.912;15.214;2023-05-02T03:46:36;35.60;20.00
34815;DHT22;21030;53.912;15.214;2023-05-02T03:49:04;35.60;20.00
34815;DHT22;21030;53.912;15.214;2023-05-02T03:51:31;35.80;20.00
34815;DHT22;21030;53.912;15.214;2023-05-02T03:54:01;35.90;20.00
34815;DHT22;21030;53.912;15.214;2023-05-02T03:56:28;35.80;20.00
34815;DHT22;21030;53.912;15.214;2023-05-02T03:58:55;35.70;20.20
34815;DHT22;21030;53.912;15.214;2023-05-02T04:01:22;35.70;20.20
34815;DHT22;21030;53.912;15.214;2023-05-02T04:03:51;35.60;20.10
34815;DHT22;21030;53.912;15.214;2023-05-02T04:06:18;35.20;20.50
34815;DHT22;21030;53.912;15.214;2023-05-02T04:08:45;35.20;20.60
34815;DHT22;21030;53.912;15.214;2023-05-02T04:11:13;35.20;20.60
34815;DHT22;21030;53.912;15.214;2023-05-02T04:13:41;35.50;20.70
34815;DHT22;21030;53.912;15.214;2023-05-02T04:16:08;35.70;20.50
34815;DHT22;21030;53.912;15.214;2023-05-02T04:18:35;35.80;20.30
34815;DHT22;21030;53.912;15.214;2023-05-02T04:21:02;36.00;20.40
34815;DHT22;21030;53.912;15.214;2023-05-02T04:23:29;35.90;20.50
34815;DHT22;21030;53.912;15.214;2023-05-02T04:25:56;35.90;20.50
34815;DHT22;21030;53.912;15.214;2023-05-02T04:28:23;36.00;20.50
34815;DHT22;21030;53.912;15.214;2023-05-02T04:30:51;36.10;20.40
34815;DHT22;21030;53.912;15.214;2023-05-02T04:33:18;36.10;20.30
34815;DHT22;21030;53.912;15.214;2023-05-02T04:35:45;36.30;20.30
34815;DHT22;21030;53.912;15.214;2023-05-02T04:38:13;36.30;20.30
34815;DHT22;21030;53.912;15.214;2023-05-02T04:40:40;36.40;20.50
34815;DHT22;21030;53.912;15.214;2023-05-02T04:43:07;36.00;20.70
34815;DHT22;21030;53.912;15.214;2023-05-02T04:45:35;35.90;21.10
34815;DHT22;21030;53.912;15.214;2023-05-02T04:48:03;35.30;21.40
34815;DHT22;21030;53.912;15.214;2023-05-02T04:50:30;35.40;21.70
34815;DHT22;21030;53.912;15.214;2023-05-02T04:52:58;35.30;22.00
34815;DHT22;21030;53.912;15.214;2023-05-02T04:55:25;34.60;22.20
34815;DHT22;21030;53.912;15.214;2023-05-02T04:57:52;34.40;22.30
34815;DHT22;21030;53.912;15.214;2023-05-02T05:00:19;34.70;22.50
34815;DHT22;21030;53.912;15.214;2023-05-02T05:02:47;34.40;22.50
34815;DHT22;21030;53.912;15.214;2023-05-02T05:05:14;34.90;22.80
34815;DHT22;21030;53.912;15.214;2023-05-02T05:07:42;35.30;22.50
34815;DHT22;21030;53.912;15.214;2023-05-02T05:10:09;34.60;22.90
34815;DHT22;21030;53.912;15.214;2023-05-02T05:12:37;35.10;23.10
34815;DHT22;21030;53.912;15.214;2023-05-02T05:15:04;35.30;22.90
34815;DHT22;21030;53.912;15.214;2023-05-02T05:17:32;35.00;22.80
34815;DHT22;21030;53.912;15.214;2023-05-02T05:19:59;34.40;23.40
34815;DHT22;21030;53.912;15.214;2023-05-02T05:22:27;34.50;23.70
34815;DHT22;21030;53.912;15.214;2023-05-02T05:24:54;34.70;23.70
34815;DHT22;21030;53.912;15.214;2023-05-02T05:27:21;34.90;23.90
34815;DHT22;21030;53.912;15.214;2023-05-02T05:29:48;34.20;23.70
34815;DHT22;21030;53.912;15.214;2023-05-02T05:32:15;34.20;24.40
34815;DHT22;21030;53.912;15.214;2023-05-02T05:34:42;35.00;24.10
34815;DHT22;21030;53.912;15.214;2023-05-02T05:37:09;34.20;24.10
34815;DHT22;21030;53.912;15.214;2023-05-02T05:39:37;34.30;24.70
34815;DHT22;21030;53.912;15.214;2023-05-02T05:42:04;33.40;25.00
34815;DHT22;21030;53.912;15.214;2023-05-02T05:44:31;33.10;25.80
34815;DHT22;21030;53.912;15.214;2023-05-02T05:46:58;33.00;25.60
34815;DHT22;21030;53.912;15.214;2023-05-02T05:49:25;33.00;25.80
34815;DHT22;21030;53.912;15.214;2023-05-02T05:51:53;33.70;25.80
34815;DHT22;21030;53.912;15.214;2023-05-02T05:54:20;34.50;25.20
34815;DHT22;21030;53.912;15.214;2023-05-02T05:56:47;33.70;25.50
34815;DHT22;21030;53.912;15.214;2023-05-02T05:59:14;33.90;25.60
34815;DHT22;21030;53.912;15.214;2023-05-02T06:01:41;33.70;25.60
34815;DHT22;21030;53.912;15.214;2023-05-02T06:04:11;33.60;25.70
34815;DHT22;21030;53.912;15.214;2023-05-02T06:06:39;33.50;26.10
34815;DHT22;21030;53.912;15.214;2023-05-02T06:09:06;33.90;26.00
34815;DHT22;21030;53.912;15.214;2023-05-02T06:11:33;33.40;25.90
34815;DHT22;21030;53.912;15.214;2023-05-02T06:14:02;33.50;26.20
34815;DHT22;21030;53.912;15.214;2023-05-02T06:16:29;33.60;26.10
34815;DHT22;21030;53.912;15.214;2023-05-02T06:18:56;34.20;26.20
34815;DHT22;21030;53.912;15.214;2023-05-02T06:21:23;34.60;25.40
34815;DHT22;21030;53.912;15.214;2023-05-02T06:23:51;34.10;25.50
34815;DHT22;21030;53.912;15.214;2023-05-02T06:26:18;34.10;25.70
34815;DHT22;21030;53.912;15.214;2023-05-02T06:28:45;33.40;25.90
34815;DHT22;21030;53.912;15.214;2023-05-02T06:31:12;33.40;26.20
34815;DHT22;21030;53.912;15.214;2023-05-02T06:33:39;33.00;26.60
34815;DHT22;21030;53.912;15.214;2023-05-02T06:36:12;33.70;26.40
34815;DHT22;21030;53.912;15.214;2023-05-02T06:38:39;34.20;26.10
34815;DHT22;21030;53.912;15.214;2023-05-02T06:41:12;34.20;25.80
34815;DHT22;21030;53.912;15.214;2023-05-02T06:43:43;33.90;26.00
34815;DHT22;21030;53.912;15.214;2023-05-02T06:46:10;33.60;26.10
34815;DHT22;21030;53.912;15.214;2023-05-02T06:48:37;34.00;26.20
34815;DHT22;21030;53.912;15.214;2023-05-02T06:51:04;33.80;26.20
34815;DHT22;21030;53.912;15.214;2023-05-02T06:53:31;34.10;25.90
34815;DHT22;21030;53.912;15.214;2023-05-02T06:55:59;34.10;26.00
34815;DHT22;21030;53.912;15.214;2023-05-02T06:58:27;33.80;25.90
34815;DHT22;21030;53.912;15.214;2023-05-02T07:00:54;34.10;26.10
34815;DHT22;21030;53.912;15.214;2023-05-02T07:03:21;35.10;25.70
34815;DHT22;21030;53.912;15.214;2023-05-02T07:05:48;34.60;25.20
34815;DHT22;21030;53.912;15.214;2023-05-02T07:08:15;34.60;25.40
34815;DHT22;21030;53.912;15.214;2023-05-02T07:10:42;33.30;26.30
34815;DHT22;21030;53.912;15.214;2023-05-02T07:13:10;34.00;26.40
34815;DHT22;21030;53.912;15.214;2023-05-02T07:15:38;33.40;26.70
34815;DHT22;21030;53.912;15.214;2023-05-02T07:18:05;33.10;26.80
34815;DHT22;21030;53.912;15.214;2023-05-02T07:20:32;33.30;27.20
34815;DHT22;21030;53.912;15.214;2023-05-02T07:22:59;33.50;27.00
34815;DHT22;21030;53.912;15.214;2023-05-02T07:25:26;32.50;27.30
34815;DHT22;21030;53.912;15.214;2023-05-02T07:27:53;32.00;27.80
34815;DHT22;21030;53.912;15.214;2023-05-02T07:30:21;31.70;28.00
34815;DHT22;21030;53.912;15.214;2023-05-02T07:32:48;32.20;28.40
34815;DHT22;21030;53.912;15.214;2023-05-02T07:35:15;31.60;28.10
34815;DHT22;21030;53.912;15.214;2023-05-02T07:37:42;31.70;28.80
34815;DHT22;21030;53.912;15.214;2023-05-02T07:40:09;32.00;29.20
34815;DHT22;21030;53.912;15.214;2023-05-02T07:42:36;32.30;29.10
34815;DHT22;21030;53.912;15.214;2023-05-02T07:45:04;32.00;29.00
34815;DHT22;21030;53.912;15.214;2023-05-02T07:47:31;31.80;29.20
34815;DHT22;21030;53.912;15.214;2023-05-02T07:49:58;31.90;29.20
34815;DHT22;21030;53.912;15.214;2023-05-02T07:52:26;32.70;28.90
34815;DHT22;21030;53.912;15.214;2023-05-02T07:54:53;33.40;28.10
34815;DHT22;21030;53.912;15.214;2023-05-02T07:57:20;32.90;27.80
34815;DHT22;21030;53.912;15.214;2023-05-02T07:59:47;33.20;28.00
34815;DHT22;21030;53.912;15.214;2023-05-02T08:02:14;32.20;28.20
34815;DHT22;21030;53.912;15.214;2023-05-02T08:04:45;32.60;28.10
34815;DHT22;21030;53.912;15.214;2023-05-02T08:07:13;32.90;28.20
34815;DHT22;21030;53.912;15.214;2023-05-02T08:09:41;33.40;27.60
34815;DHT22;21030;53.912;15.214;2023-05-02T08:12:08;32.90;27.20
34815;DHT22;21030;53.912;15.214;2023-05-02T08:14:35;31.60;27.40
34815;DHT22;21030;53.912;15.214;2023-05-02T08:17:02;32.30;27.40
34815;DHT22;21030;53.912;15.214;2023-05-02T08:19:29;33.00;26.80
34815;DHT22;21030;53.912;15.214;2023-05-02T08:21:57;32.10;26.60
34815;DHT22;21030;53.912;15.214;2023-05-02T08:24:24;32.60;27.10
34815;DHT22;21030;53.912;15.214;2023-05-02T08:26:51;31.30;27.10
34815;DHT22;21030;53.912;15.214;2023-05-02T08:29:19;32.00;27.20
34815;DHT22;21030;53.912;15.214;2023-05-02T08:31:46;32.70;26.40
34815;DHT22;21030;53.912;15.214;2023-05-02T08:34:13;32.10;25.90
34815;DHT22;21030;53.912;15.214;2023-05-02T08:36:41;32.30;26.20
34815;DHT22;21030;53.912;15.214;2023-05-02T08:39:08;32.90;26.10
34815;DHT22;21030;53.912;15.214;2023-05-02T08:41:35;32.20;26.00
34815;DHT22;21030;53.912;15.214;2023-05-02T08:44:02;31.60;25.80
34815;DHT22;21030;53.912;15.214;2023-05-02T08:46:30;32.10;25.90
34815;DHT22;21030;53.912;15.214;2023-05-02T08:48:59;32.00;25.90
34815;DHT22;21030;53.912;15.214;2023-05-02T08:51:26;32.00;25.60
34815;DHT22;21030;53.912;15.214;2023-05-02T08:53:56;32.90;25.30
34815;DHT22;21030;53.912;15.214;2023-05-02T08:56:24;33.70;24.70
34815;DHT22;21030;53.912;15.214;2023-05-02T08:58:59;32.90;24.80
34815;DHT22;21030;53.912;15.214;2023-05-02T09:01:29;33.60;24.50
34815;DHT22;21030;53.912;15.214;2023-05-02T09:03:59;33.50;24.50
34815;DHT22;21030;53.912;15.214;2023-05-02T09:06:27;33.10;24.60
34815;DHT22;21030;53.912;15.214;2023-05-02T09:08:59;33.40;24.50
34815;DHT22;21030;53.912;15.214;2023-05-02T09:11:26;33.10;24.00
34815;DHT22;21030;53.912;15.214;2023-05-02T09:13:53;33.80;24.00
34815;DHT22;21030;53.912;15.214;2023-05-02T09:16:25;33.90;23.60
34815;DHT22;21030;53.912;15.214;2023-05-02T09:18:54;34.80;23.50
34815;DHT22;21030;53.912;15.214;2023-05-02T09:21:24;34.70;22.90
34815;DHT22;21030;53.912;15.214;2023-05-02T09:23:56;34.90;22.70
34815;DHT22;21030;53.912;15.214;2023-05-02T09:26:29;34.30;22.80
34815;DHT22;21030;53.912;15.214;2023-05-02T09:29:00;33.70;22.90
34815;DHT22;21030;53.912;15.214;2023-05-02T09:31:29;33.50;23.30
34815;DHT22;21030;53.912;15.214;2023-05-02T09:34:16;33.70;23.30
34815;DHT22;21030;53.912;15.214;2023-05-02T09:36:49;33.90;23.40
34815;DHT22;21030;53.912;15.214;2023-05-02T09:39:27;34.30;22.80
34815;DHT22;21030;53.912;15.214;2023-05-02T09:41:56;34.30;22.70
34815;DHT22;21030;53.912;15.214;2023-05-02T09:44:35;34.80;22.60
34815;DHT22;21030;53.912;15.214;2023-05-02T09:47:03;34.50;21.90
34815;DHT22;21030;53.912;15.214;2023-05-02T09:49:41;34.90;21.70
34815;DHT22;21030;53.912;15.214;2023-05-02T09:52:13;34.80;21.20
34815;DHT22;21030;53.912;15.214;2023-05-02T09:54:43;34.50;21.80
34815;DHT22;21030;53.912;15.214;2023-05-02T09:57:38;34.70;21.80
34815;DHT22;21030;53.912;15.214;2023-05-02T10:00:07;33.90;21.90
34815;DHT22;21030;53.912;15.214;2023-05-02T10:02:36;34.30;22.50
34815;DHT22;21030;53.912;15.214;2023-05-02T10:05:09;34.70;22.10
34815;DHT22;21030;53.912;15.214;2023-05-02T10:07:37;35.50;21.90
34815;DHT22;21030;53.912;15.214;2023-05-02T10:10:06;36.10;20.90
34815;DHT22;21030;53.912;15.214;2023-05-02T10:12:34;36.70;20.60
34815;DHT22;21030;53.912;15.214;2023-05-02T10:15:03;36.20;20.50
34815;DHT22;21030;53.912;15.214;2023-05-02T10:17:34;35.10;20.30
34815;DHT22;21030;53.912;15.214;2023-05-02T10:20:06;35.90;20.60
34815;DHT22;21030;53.912;15.214;2023-05-02T10:22:34;36.60;20.70
34815;DHT22;21030;53.912;15.214;2023-05-02T10:25:03;36.90;20.20
34815;DHT22;21030;53.912;15.214;2023-05-02T10:27:31;37.00;20.40
34815;DHT22;21030;53.912;15.214;2023-05-02T10:29:59;36.50;20.00
34815;DHT22;21030;53.912;15.214;2023-05-02T10:32:27;35.90;19.90
34815;DHT22;21030;53.912;15.214;2023-05-02T10:35:03;35.30;20.10
34815;DHT22;21030;53.912;15.214;2023-05-02T10:37:31;35.00;20.10
34815;DHT22;21030;53.912;15.214;2023-05-02T10:39:59;35.50;20.40
34815;DHT22;21030;53.912;15.214;2023-05-02T10:42:28;36.30;20.30
34815;DHT22;21030;53.912;15.214;2023-05-02T10:44:56;36.30;19.40
34815;DHT22;21030;53.912;15.214;2023-05-02T10:47:26;36.40;18.50
34815;DHT22;21030;53.912;15.214;2023-05-02T10:50:01;37.40;18.40
34815;DHT22;21030;53.912;15.214;2023-05-02T10:52:32;38.20;18.10
34815;DHT22;21030;53.912;15.214;2023-05-02T10:55:18;38.70;17.70
34815;DHT22;21030;53.912;15.214;2023-05-02T11:00:32;37.90;17.90
34815;DHT22;21030;53.912;15.214;2023-05-02T11:03:00;38.40;17.60
34815;DHT22;21030;53.912;15.214;2023-05-02T11:05:28;39.10;17.30
34815;DHT22;21030;53.912;15.214;2023-05-02T11:10:48;39.00;17.30
34815;DHT22;21030;53.912;15.214;2023-05-02T11:13:47;38.40;16.70
34815;DHT22;21030;53.912;15.214;2023-05-02T11:16:14;39.50;17.10
34815;DHT22;21030;53.912;15.214;2023-05-02T11:19:00;38.30;16.60
34815;DHT22;21030;53.912;15.214;2023-05-02T11:21:28;37.50;17.60
34815;DHT22;21030;53.912;15.214;2023-05-02T11:30:07;39.10;17.20
34815;DHT22;21030;53.912;15.214;2023-05-02T11:35:22;38.70;17.20
34815;DHT22;21030;53.912;15.214;2023-05-02T11:40:23;38.70;17.30
34815;DHT22;21030;53.912;15.214;2023-05-02T11:42:51;38.00;17.20
34815;DHT22;21030;53.912;15.214;2023-05-02T11:45:18;37.90;17.40
34815;DHT22;21030;53.912;15.214;2023-05-02T11:47:47;37.80;17.70
34815;DHT22;21030;53.912;15.214;2023-05-02T11:50:15;37.30;17.90
34815;DHT22;21030;53.912;15.214;2023-05-02T11:52:43;36.80;17.80
34815;DHT22;21030;53.912;15.214;2023-05-02T11:55:13;36.50;18.30
34815;DHT22;21030;53.912;15.214;2023-05-02T11:57:40;37.10;18.70
34815;DHT22;21030;53.912;15.214;2023-05-02T12:00:09;37.30;18.40
34815;DHT22;21030;53.912;15.214;2023-05-02T12:02:41;37.90;18.30
34815;DHT22;21030;53.912;15.214;2023-05-02T12:05:10;38.10;17.60
34815;DHT22;21030;53.912;15.214;2023-05-02T12:07:43;37.80;17.80
34815;DHT22;21030;53.912;15.214;2023-05-02T12:10:12;38.40;18.20
34815;DHT22;21030;53.912;15.214;2023-05-02T12:12:42;38.10;17.60
34815;DHT22;21030;53.912;15.214;2023-05-02T12:15:11;37.60;17.50
34815;DHT22;21030;53.912;15.214;2023-05-02T12:17:40;38.30;17.60
34815;DHT22;21030;53.912;15.214;2023-05-02T12:20:09;39.00;16.80
34815;DHT22;21030;53.912;15.214;2023-05-02T12:22:37;38.00;17.10
34815;DHT22;21030;53.912;15.214;2023-05-02T12:25:05;39.40;17.40
34815;DHT22;21030;53.912;15.214;2023-05-02T12:27:32;38.40;16.70
34815;DHT22;21030;53.912;15.214;2023-05-02T12:30:01;38.20;16.70
34815;DHT22;21030;53.912;15.214;2023-05-02T12:32:30;38.20;17.00
34815;DHT22;21030;53.912;15.214;2023-05-02T12:34:58;38.60;17.30
34815;DHT22;21030;53.912;15.214;2023-05-02T12:37:26;38.10;16.90
34815;DHT22;21030;53.912;15.214;2023-05-02T12:39:56;38.40;17.20
34815;DHT22;21030;53.912;15.214;2023-05-02T12:42:24;37.00;17.30
34815;DHT22;21030;53.912;15.214;2023-05-02T12:44:52;37.50;17.80
34815;DHT22;21030;53.912;15.214;2023-05-02T12:47:20;37.50;17.50
34815;DHT22;21030;53.912;15.214;2023-05-02T12:50:07;37.30;17.50
34815;DHT22;21030;53.912;15.214;2023-05-02T12:52:51;37.10;17.80
34815;DHT22;21030;53.912;15.214;2023-05-02T12:55:25;37.30;17.60
34815;DHT22;21030;53.912;15.214;2023-05-02T12:58:06;36.60;17.30
34815;DHT22;21030;53.912;15.214;2023-05-02T13:00:39;35.90;18.20
34815;DHT22;21030;53.912;15.214;2023-05-02T13:03:08;37.00;18.30
34815;DHT22;21030;53.912;15.214;2023-05-02T13:05:36;36.70;18.00
34815;DHT22;21030;53.912;15.214;2023-05-02T13:08:04;37.80;18.20
34815;DHT22;21030;53.912;15.214;2023-05-02T13:10:32;37.70;17.70
34815;DHT22;21030;53.912;15.214;2023-05-02T13:12:59;37.00;18.10
34815;DHT22;21030;53.912;15.214;2023-05-02T13:15:27;36.80;18.20
34815;DHT22;21030;53.912;15.214;2023-05-02T13:17:54;36.60;18.00
34815;DHT22;21030;53.912;15.214;2023-05-02T13:20:22;35.80;17.90
34815;DHT22;21030;53.912;15.214;2023-05-02T13:22:49;36.00;18.30
34815;DHT22;21030;53.912;15.214;2023-05-02T13:25:16;36.70;18.60
34815;DHT22;21030;53.912;15.214;2023-05-02T13:27:43;36.10;18.40
34815;DHT22;21030;53.912;15.214;2023-05-02T13:30:13;37.30;18.70
34815;DHT22;21030;53.912;15.214;2023-05-02T13:32:41;37.50;18.30
34815;DHT22;21030;53.912;15.214;2023-05-02T13:35:09;36.50;17.70
34815;DHT22;21030;53.912;15.214;2023-05-02T13:37:39;36.80;18.00
34815;DHT22;21030;53.912;15.214;2023-05-02T13:40:09;37.00;17.90
34815;DHT22;21030;53.912;15.214;2023-05-02T13:42:37;38.20;17.70
34815;DHT22;21030;53.912;15.214;2023-05-02T13:45:05;38.60;17.70
34815;DHT22;21030;53.912;15.214;2023-05-02T13:47:33;37.30;17.40
34815;DHT22;21030;53.912;15.214;2023-05-02T13:50:00;38.00;17.50
34815;DHT22;21030;53.912;15.214;2023-05-02T13:52:28;37.50;16.90
34815;DHT22;21030;53.912;15.214;2023-05-02T13:54:55;37.60;17.20
34815;DHT22;21030;53.912;15.214;2023-05-02T13:57:22;37.70;17.00
34815;DHT22;21030;53.912;15.214;2023-05-02T13:59:49;37.30;17.10
34815;DHT22;21030;53.912;15.214;2023-05-02T14:02:17;38.10;17.00
34815;DHT22;21030;53.912;15.214;2023-05-02T14:04:44;38.40;16.30
34815;DHT22;21030;53.912;15.214;2023-05-02T14:07:11;38.70;16.70
34815;DHT22;21030;53.912;15.214;2023-05-02T14:09:38;38.70;16.60
34815;DHT22;21030;53.912;15.214;2023-05-02T14:12:05;37.80;16.40
34815;DHT22;21030;53.912;15.214;2023-05-02T14:14:32;37.20;17.30
34815;DHT22;21030;53.912;15.214;2023-05-02T14:17:02;36.30;17.50
34815;DHT22;21030;53.912;15.214;2023-05-02T14:19:30;35.80;17.90
34815;DHT22;21030;53.912;15.214;2023-05-02T14:21:58;36.60;17.80
34815;DHT22;21030;53.912;15.214;2023-05-02T14:24:25;37.10;17.80
34815;DHT22;21030;53.912;15.214;2023-05-02T14:26:52;37.40;17.60
34815;DHT22;21030;53.912;15.214;2023-05-02T14:29:19;37.00;17.30
34815;DHT22;21030;53.912;15.214;2023-05-02T14:31:48;37.00;17.30
34815;DHT22;21030;53.912;15.214;2023-05-02T14:34:17;37.00;17.30
34815;DHT22;21030;53.912;15.214;2023-05-02T14:36:46;37.10;17.40
34815;DHT22;21030;53.912;15.214;2023-05-02T14:39:13;36.70;17.50
34815;DHT22;21030;53.912;15.214;2023-05-02T14:41:40;36.10;18.00
34815;DHT22;21030;53.912;15.214;2023-05-02T14:44:09;35.50;18.60
34815;DHT22;21030;53.912;15.214;2023-05-02T14:46:36;35.60;18.50
34815;DHT22;21030;53.912;15.214;2023-05-02T14:49:03;35.60;18.10
34815;DHT22;21030;53.912;15.214;2023-05-02T14:51:30;34.80;18.40
34815;DHT22;21030;53.912;15.214;2023-05-02T14:53:59;34.80;18.80
34815;DHT22;21030;53.912;15.214;2023-05-02T14:56:26;36.10;18.90
34815;DHT22;21030;53.912;15.214;2023-05-02T14:58:54;36.00;18.00
34815;DHT22;21030;53.912;15.214;2023-05-02T15:01:21;35.80;18.20
34815;DHT22;21030;53.912;15.214;2023-05-02T15:03:51;35.90;18.10
34815;DHT22;21030;53.912;15.214;2023-05-02T15:06:33;36.60;17.70
34815;DHT22;21030;53.912;15.214;2023-05-02T15:09:02;36.40;17.80
34815;DHT22;21030;53.912;15.214;2023-05-02T15:11:30;36.70;18.00
34815;DHT22;21030;53.912;15.214;2023-05-02T15:13:57;36.10;18.10
34815;DHT22;21030;53.912;15.214;2023-05-02T15:16:25;35.80;18.40
34815;DHT22;21030;53.912;15.214;2023-05-02T15:18:53;35.70;18.20
34815;DHT22;21030;53.912;15.214;2023-05-02T15:21:20;35.10;17.20
34815;DHT22;21030;53.912;15.214;2023-05-02T15:23:49;35.60;17.30
34815;DHT22;21030;53.912;15.214;2023-05-02T15:26:16;35.70;17.60
34815;DHT22;21030;53.912;15.214;2023-05-02T15:28:43;35.70;17.80
34815;DHT22;21030;53.912;15.214;2023-05-02T15:31:10;36.10;18.00
34815;DHT22;21030;53.912;15.214;2023-05-02T15:33:37;35.80;17.80
34815;DHT22;21030;53.912;15.214;2023-05-02T15:36:04;35.90;17.50
34815;DHT22;21030;53.912;15.214;2023-05-02T15:38:32;36.00;17.70
34815;DHT22;21030;53.912;15.214;2023-05-02T15:41:04;35.20;17.10
34815;DHT22;21030;53.912;15.214;2023-05-02T15:43:31;35.40;17.10
34815;DHT22;21030;53.912;15.214;2023-05-02T15:45:59;34.80;17.20
34815;DHT22;21030;53.912;15.214;2023-05-02T15:48:27;35.10;17.50
34815;DHT22;21030;53.912;15.214;2023-05-02T15:50:55;34.70;17.20
34815;DHT22;21030;53.912;15.214;2023-05-02T15:53:22;34.50;17.00
34815;DHT22;21030;53.912;15.214;2023-05-02T15:55:50;35.30;17.50
34815;DHT22;21030;53.912;15.214;2023-05-02T15:58:18;35.60;17.10
34815;DHT22;21030;53.912;15.214;2023-05-02T16:00:46;35.50;17.30
34815;DHT22;21030;53.912;15.214;2023-05-02T16:03:13;35.40;17.30
34815;DHT22;21030;53.912;15.214;2023-05-02T16:05:41;35.60;18.20
34815;DHT22;21030;53.912;15.214;2023-05-02T16:08:08;34.80;17.70